TZDO2: Arkansas Rv at SH 344 nr Tulsa, OK

                                SHEF ID:       TZDO2     Arkansas Rv at SH 344 nr Tulsa, OK
STATION TYPE:

STAGE RIV-FLOW BAT-LOAD
ft cfs volt
Ccp-Rev Ccp-Rev Ccp-Rev
(America/Chicago)
04/24 00:00 10.57 6862 12.68
04/24 01:00 10.59 6947 12.67
04/24 02:00 10.75 7618 12.65
04/24 03:00 11.06 8921 12.63
04/24 04:00 11.24 9677 12.60
04/24 05:00 11.37 10223 12.59
04/24 06:00 11.37 10223 12.57
04/24 07:00 11.30 9930 12.54
04/24 08:00 11.20 9510 12.58
04/24 09:00 11.11 9132 12.71
04/24 10:00 11.04 8837 13.02
04/24 11:00 10.99 8627 13.30
04/24 12:00 10.94 8417 13.30
04/24 13:00 10.90 8250 13.13
04/24 14:00 10.88 8165 13.03
04/24 15:00 10.86 8080 12.99
04/24 16:00 10.84 7996 12.97
04/24 17:00 10.83 7955 13.01
04/24 18:00 10.80 7830 12.94
04/24 19:00 10.81 7871 12.94
04/24 20:00 10.84 7996 12.93
04/24 21:00 10.83 7955 12.77
04/24 22:00 10.82 7913 12.73
04/24 23:00 ---- ---- ----
Data processed at Sat 25Apr2026 04:51 GMT

NOTICE: If you are parsing this page

Please convert to using our Data API. Starting early 2026 we will be migrating to: https://water.usace.army.mil with modern pages rendered in JavaScript. When this migration completes you will no longer be able to scrape this page! CWMSDataAPI (CDA)

Timeseries IDs (TSIDs)

TSIDs used from left to right in the data table
GILC.Stage.Inst.1Hour.0.Ccp-Rev
GILC.Flow.Inst.1Hour.0.Ccp-Rev
GILC.Volt-Battery Load.Inst.1Hour.0.Ccp-Rev

                            

All information presented herein is the property of the government of the United States of America and may be revised or deleted at any time without prior notice. Dissemination of this information without the expressed written consent of the Public Affairs Office, Tulsa District U.S. Army Corps of Engineers is strictly prohibited. These data are gathered electronically and, as presented, have NOT undergone any form of quality control. These data are NOT guaranteed to be valid or correct.